Time;durP1;ratioP1;P1;durP2;ratioP2;P2;SDS_P1;SDS_P2;PMS_P1;PMS_P2;Temp;Humidity;BMP_temperature;BMP_pressure;BME280_temperature;BME280_humidity;BME280_pressure;Samples;Min_cycle;Max_cycle;Signal;HPM_P1;HPM_P2
2021/11/26 00:01:54;;;;;;;47.50;22.52;;;;;;;4.11;72.62;97515.34;5072514;28;20028;-71
2021/11/26 00:04:20;;;;;;;49.28;22.50;;;;;;;4.11;72.64;97517.22;5089491;28;20099;-71
2021/11/26 00:06:45;;;;;;;48.95;22.35;;;;;;;4.10;73.25;97511.00;5090152;28;20617;-71
2021/11/26 00:09:11;;;;;;;48.10;23.35;;;;;;;4.09;73.33;97513.97;5067206;28;20075;-71
2021/11/26 00:11:36;;;;;;;47.47;22.10;;;;;;;4.08;72.52;97513.19;5072030;28;20486;-71
2021/11/26 00:14:11;;;;;;;45.67;21.77;;;;;;;4.09;72.86;97506.66;5090815;28;20024;-70
2021/11/26 00:16:40;;;;;;;47.38;22.60;;;;;;;4.09;72.46;97506.66;5070737;28;20027;-71
2021/11/26 00:19:07;;;;;;;42.05;19.23;;;;;;;4.11;72.96;97503.66;5090502;28;20028;-71
2021/11/26 00:21:38;;;;;;;36.38;17.00;;;;;;;4.14;73.27;97511.25;5090077;28;20569;-71
2021/11/26 00:24:06;;;;;;;46.78;22.48;;;;;;;4.15;72.71;97511.00;5088647;28;20034;-71
2021/11/26 00:26:32;;;;;;;48.55;22.48;;;;;;;4.18;72.77;97509.59;5091211;28;20078;-70
2021/11/26 00:28:58;;;;;;;43.00;21.27;;;;;;;4.17;73.00;97503.38;5088666;28;20085;-70
2021/11/26 00:31:23;;;;;;;48.45;21.95;;;;;;;4.16;72.47;97501.75;5090068;28;20040;-71
2021/11/26 00:33:49;;;;;;;43.38;21.10;;;;;;;4.17;72.84;97491.69;5089344;28;20024;-71
2021/11/26 00:36:14;;;;;;;42.53;21.13;;;;;;;4.19;72.86;97503.09;5091122;28;20077;-71
2021/11/26 00:38:40;;;;;;;44.67;21.55;;;;;;;4.21;72.55;97495.47;5088352;28;20016;-72
2021/11/26 00:41:06;;;;;;;44.42;22.52;;;;;;;4.20;72.47;97498.50;5089752;28;20106;-71
2021/11/26 00:43:31;;;;;;;45.97;22.25;;;;;;;4.19;72.50;97483.28;5090015;28;20027;-71
2021/11/26 00:45:57;;;;;;;40.13;18.20;;;;;;;4.20;72.84;97476.78;5090379;28;20016;-71
2021/11/26 00:48:23;;;;;;;44.95;21.10;;;;;;;4.24;72.91;97484.06;5087048;28;20537;-71
2021/11/26 00:50:49;;;;;;;48.65;22.80;;;;;;;4.24;72.37;97489.50;5090282;28;20474;-72
2021/11/26 00:53:14;;;;;;;50.05;22.10;;;;;;;4.22;72.84;97482.75;5087719;28;20028;-71
2021/11/26 00:55:40;;;;;;;47.38;22.60;;;;;;;4.19;71.98;97473.22;5089572;28;20380;-71
2021/11/26 00:58:06;;;;;;;47.22;22.67;;;;;;;4.16;72.36;97474.63;5088905;28;20027;-71
2021/11/26 01:00:32;;;;;;;48.53;22.50;;;;;;;4.15;72.29;97462.13;5085752;28;20024;-71
2021/11/26 01:02:58;;;;;;;50.60;22.25;;;;;;;4.16;72.87;97468.38;5089778;28;20446;-71
2021/11/26 01:05:24;;;;;;;44.75;21.50;;;;;;;4.15;72.84;97469.44;5090292;28;20388;-71
2021/11/26 01:07:49;;;;;;;45.35;21.80;;;;;;;4.19;72.41;97464.28;5086606;28;20033;-71
2021/11/26 01:10:18;;;;;;;46.70;22.92;;;;;;;4.25;72.43;97465.91;5087293;28;20039;-71
2021/11/26 01:12:45;;;;;;;43.33;22.27;;;;;;;4.30;72.63;97474.00;5071292;28;20034;-70
2021/11/26 01:15:13;;;;;;;42.88;20.80;;;;;;;4.29;72.59;97470.47;5071565;28;20081;-71
2021/11/26 01:17:41;;;;;;;49.17;24.27;;;;;;;4.27;72.46;97461.00;5088071;28;20081;-70
2021/11/26 01:20:10;;;;;;;44.92;21.65;;;;;;;4.31;72.45;97453.91;5086793;28;20540;-71
2021/11/26 01:22:36;;;;;;;47.35;23.38;;;;;;;4.33;72.16;97465.28;5069747;28;20111;-71
2021/11/26 01:25:03;;;;;;;48.47;22.48;;;;;;;4.34;72.35;97466.13;5089986;28;20437;-71
2021/11/26 01:27:28;;;;;;;42.60;21.27;;;;;;;4.29;72.52;97466.94;5089664;28;20018;-70
2021/11/26 01:29:54;;;;;;;47.22;23.02;;;;;;;4.24;72.08;97461.56;5086424;28;20032;-71
2021/11/26 01:32:19;;;;;;;43.97;22.65;;;;;;;4.24;72.87;97456.13;5083728;28;20387;-71
2021/11/26 01:34:45;;;;;;;44.05;20.00;;;;;;;4.27;72.24;97452.88;5088836;28;20496;-71
2021/11/26 01:37:10;;;;;;;48.88;22.33;;;;;;;4.26;72.41;97440.38;5070610;28;20022;-70
2021/11/26 01:39:36;;;;;;;46.17;22.25;;;;;;;4.26;72.11;97434.94;5085531;28;20020;-71
2021/11/26 01:42:01;;;;;;;47.70;23.00;;;;;;;4.23;71.90;97433.59;5088874;28;20028;-71
2021/11/26 01:44:27;;;;;;;47.35;21.10;;;;;;;4.16;71.95;97422.22;5089500;28;20024;-71
2021/11/26 01:46:52;;;;;;;51.03;23.20;;;;;;;4.12;71.98;97434.72;5086648;28;20055;-70
2021/11/26 01:49:18;;;;;;;52.90;24.17;;;;;;;4.08;72.56;97439.09;5088704;28;20102;-70
2021/11/26 01:51:43;;;;;;;49.15;22.23;;;;;;;4.07;72.67;97446.44;5087129;28;20123;-71
2021/11/26 01:54:09;;;;;;;47.63;21.77;;;;;;;4.08;72.67;97433.66;5088583;28;20047;-71
2021/11/26 01:56:35;;;;;;;46.38;21.50;;;;;;;4.11;72.45;97442.06;5087895;28;20028;-71
2021/11/26 01:59:01;;;;;;;43.30;21.00;;;;;;;4.13;72.17;97431.75;5089014;28;20054;-70
2021/11/26 02:01:27;;;;;;;54.33;25.23;;;;;;;4.17;72.25;97421.13;5088131;28;20055;-71
2021/11/26 02:03:53;;;;;;;53.70;25.10;;;;;;;4.15;72.52;97399.72;5088800;28;20031;-71
2021/11/26 02:06:18;;;;;;;48.20;22.27;;;;;;;4.16;72.18;97414.91;5088742;28;20054;-70
2021/11/26 02:08:44;;;;;;;53.28;24.13;;;;;;;4.12;72.47;97416.56;5086142;28;20059;-71
2021/11/26 02:11:10;;;;;;;43.75;19.75;;;;;;;4.10;72.32;97399.75;5087982;28;20032;-70
2021/11/26 02:13:35;;;;;;;49.45;22.67;;;;;;;4.08;72.56;97403.81;5069761;28;20044;-70
2021/11/26 02:16:03;;;;;;;49.83;22.35;;;;;;;4.06;72.15;97395.16;5089533;28;20024;-71
2021/11/26 02:18:28;;;;;;;50.90;23.42;;;;;;;4.03;71.89;97382.97;5091062;28;20484;-71
2021/11/26 02:20:54;;;;;;;48.22;22.02;;;;;;;4.02;72.34;97378.63;5092429;28;20161;-70
2021/11/26 02:23:20;;;;;;;50.90;21.48;;;;;;;3.98;72.80;97375.66;5092285;28;20031;-71
2021/11/26 02:25:46;;;;;;;52.95;24.35;;;;;;;3.97;72.38;97378.66;5092396;28;20166;-71
2021/11/26 02:28:14;;;;;;;55.22;26.05;;;;;;;4.00;72.22;97367.25;5092958;28;20020;-71
2021/11/26 02:30:41;;;;;;;54.22;25.70;;;;;;;4.02;72.41;97373.19;5090191;28;20096;-71
2021/11/26 02:33:12;;;;;;;55.97;25.38;;;;;;;4.05;72.48;97369.94;5091288;28;20024;-71
2021/11/26 02:35:39;;;;;;;50.25;22.88;;;;;;;4.07;72.36;97366.94;5094380;28;20024;-71
2021/11/26 02:38:08;;;;;;;44.58;22.08;;;;;;;4.05;72.79;97367.22;5094136;28;20454;-71
2021/11/26 02:40:35;;;;;;;51.43;23.33;;;;;;;4.02;72.69;97365.88;5092794;28;20084;-71
2021/11/26 02:43:01;;;;;;;53.05;24.48;;;;;;;4.03;72.43;97369.38;5093012;28;20286;-72
2021/11/26 02:45:28;;;;;;;48.08;23.00;;;;;;;4.05;72.20;97364.50;5091198;28;20039;-71
2021/11/26 02:47:54;;;;;;;48.20;22.10;;;;;;;4.09;72.81;97362.84;5088663;28;20027;-72
2021/11/26 02:50:23;;;;;;;46.10;20.83;;;;;;;4.13;72.39;97365.81;5091892;28;20027;-72
2021/11/26 02:52:49;;;;;;;40.17;18.92;;;;;;;4.15;72.21;97363.63;5091888;28;20040;-72
2021/11/26 02:55:17;;;;;;;49.53;22.60;;;;;;;4.12;72.06;97370.44;5092806;28;20051;-71
2021/11/26 02:57:44;;;;;;;54.22;24.00;;;;;;;4.16;72.21;97367.94;5092310;28;21424;-72
2021/11/26 03:00:14;;;;;;;50.55;23.88;;;;;;;4.19;72.81;97372.03;5091195;28;20107;-72
2021/11/26 03:02:39;;;;;;;45.55;19.90;;;;;;;4.16;72.04;97376.09;5089788;28;20555;-72
2021/11/26 03:05:05;;;;;;;50.63;23.42;;;;;;;4.12;72.72;97364.19;5092002;28;20023;-71
2021/11/26 03:07:31;;;;;;;53.83;24.58;;;;;;;4.12;72.52;97367.72;5090437;28;20019;-72
2021/11/26 03:09:56;;;;;;;42.63;20.08;;;;;;;4.15;72.66;97359.00;5091256;28;20024;-71
2021/11/26 03:12:22;;;;;;;48.25;22.40;;;;;;;4.09;72.11;97345.75;5092015;28;20024;-72
2021/11/26 03:14:48;;;;;;;49.28;23.52;;;;;;;4.05;72.40;97342.78;5091248;28;20036;-72
2021/11/26 03:17:15;;;;;;;44.30;20.95;;;;;;;3.99;72.60;97341.19;5092732;28;20024;-72
2021/11/26 03:19:40;;;;;;;50.63;22.33;;;;;;;3.93;71.74;97324.16;5089317;28;20512;-72
2021/11/26 03:22:06;;;;;;;53.53;24.85;;;;;;;3.91;71.92;97322.78;5091403;28;20074;-70
2021/11/26 03:24:31;;;;;;;56.53;25.92;;;;;;;3.92;72.03;97321.69;5092142;28;20016;-70
2021/11/26 03:26:57;;;;;;;56.05;25.10;;;;;;;3.87;72.18;97323.34;5092273;28;20110;-73
2021/11/26 03:29:22;;;;;;;62.50;30.13;;;;;;;3.81;71.60;97320.97;5090879;28;20020;-72
2021/11/26 03:31:47;;;;;;;65.43;29.42;;;;;;;3.77;71.59;97323.44;5092096;28;20163;-74
2021/11/26 03:34:13;;;;;;;61.33;27.83;;;;;;;3.78;72.15;97324.22;5073737;28;20543;-74
2021/11/26 03:36:38;;;;;;;63.75;27.70;;;;;;;3.76;71.30;97320.97;5073661;28;20026;-73
2021/11/26 03:39:04;;;;;;;56.38;25.27;;;;;;;3.71;71.80;97321.84;5091608;28;20605;-73
2021/11/26 03:41:30;;;;;;;55.10;25.80;;;;;;;3.66;71.42;97306.41;5091452;28;20051;-72
2021/11/26 03:43:56;;;;;;;57.67;26.05;;;;;;;3.62;71.73;97315.38;5074110;28;20107;-73
2021/11/26 03:46:22;;;;;;;54.97;25.25;;;;;;;3.59;71.76;97327.59;5090782;28;20027;-72
2021/11/26 03:48:47;;;;;;;63.55;29.52;;;;;;;3.56;71.20;97328.16;5072488;28;20033;-71
2021/11/26 03:51:13;;;;;;;48.92;22.55;;;;;;;3.50;70.92;97321.91;5089130;28;20640;-71
2021/11/26 03:53:38;;;;;;;59.38;25.30;;;;;;;3.39;70.54;97321.16;5091961;28;20112;-72
2021/11/26 03:56:04;;;;;;;54.80;26.35;;;;;;;3.35;70.57;97311.16;5089163;28;20526;-71
2021/11/26 03:58:30;;;;;;;51.97;25.38;;;;;;;3.31;70.95;97313.59;5090063;28;20024;-71
2021/11/26 04:00:56;;;;;;;51.58;23.50;;;;;;;3.27;70.61;97315.22;5088730;28;20062;-71
2021/11/26 04:03:21;;;;;;;53.78;25.83;;;;;;;3.19;70.22;97319.34;5089523;28;20031;-71
2021/11/26 04:05:47;;;;;;;54.42;25.33;;;;;;;3.20;70.97;97320.97;5091041;28;20102;-71
2021/11/26 04:08:12;;;;;;;48.75;22.60;;;;;;;3.20;71.01;97320.97;5090892;28;20027;-71
2021/11/26 04:10:38;;;;;;;53.33;25.30;;;;;;;3.20;70.67;97309.31;5071905;28;20028;-71
2021/11/26 04:13:04;;;;;;;58.00;27.98;;;;;;;3.21;70.86;97313.66;5088070;28;20020;-71
2021/11/26 04:15:32;;;;;;;57.15;25.17;;;;;;;3.20;70.32;97307.41;5089116;28;20081;-71
2021/11/26 04:18:01;;;;;;;74.10;32.75;;;;;;;3.17;70.97;97299.84;5088701;28;20089;-72
2021/11/26 04:20:27;;;;;;;65.95;29.02;;;;;;;3.17;70.72;97290.91;5087045;28;20056;-71
2021/11/26 04:22:53;;;;;;;55.30;25.90;;;;;;;3.14;70.29;97278.72;5087710;28;20071;-71
2021/11/26 04:25:19;;;;;;;54.50;25.25;;;;;;;3.13;71.04;97267.06;5088578;28;20056;-72
2021/11/26 04:27:45;;;;;;;57.22;26.42;;;;;;;3.13;70.38;97256.25;5088577;28;20074;-71
2021/11/26 04:30:12;;;;;;;47.25;22.20;;;;;;;3.12;70.65;97259.22;5090895;28;20063;-71
2021/11/26 04:32:38;;;;;;;52.85;24.95;;;;;;;3.08;70.34;97255.44;5084906;28;20092;-71
2021/11/26 04:35:05;;;;;;;48.13;22.98;;;;;;;3.04;70.14;97259.81;5087951;28;20032;-71
2021/11/26 04:37:31;;;;;;;60.58;26.05;;;;;;;3.00;70.14;97264.16;5089749;28;20107;-71
2021/11/26 04:39:56;;;;;;;58.20;26.10;;;;;;;2.96;70.88;97270.13;5089228;28;20025;-72
2021/11/26 04:42:22;;;;;;;59.58;26.95;;;;;;;2.94;69.98;97276.88;5089969;28;20024;-71
2021/11/26 04:44:47;;;;;;;62.67;26.02;;;;;;;2.92;70.23;97276.34;5089900;28;20050;-71
2021/11/26 04:47:13;;;;;;;52.20;24.60;;;;;;;2.92;70.86;97266.34;5089157;28;20108;-71
2021/11/26 04:49:38;;;;;;;51.53;24.98;;;;;;;2.85;69.93;97257.69;5088844;28;20468;-71
2021/11/26 04:52:04;;;;;;;52.33;25.58;;;;;;;2.77;69.55;97252.84;5090054;28;20488;-71
2021/11/26 04:54:29;;;;;;;53.90;25.17;;;;;;;2.71;70.47;97257.47;5090646;28;20020;-71
2021/11/26 04:56:56;;;;;;;50.83;24.48;;;;;;;2.66;69.89;97252.84;5071427;28;20029;-71
2021/11/26 04:59:22;;;;;;;55.13;24.70;;;;;;;2.62;69.93;97242.84;5090370;28;20384;-71
2021/11/26 05:01:48;;;;;;;73.47;30.90;;;;;;;2.59;69.89;97243.41;5087047;28;20032;-72
2021/11/26 05:04:13;;;;;;;73.38;30.20;;;;;;;2.54;70.20;97241.53;5086751;28;20035;-72
2021/11/26 05:06:39;;;;;;;63.67;27.10;;;;;;;2.49;70.11;97241.53;5089475;28;20028;-71
2021/11/26 05:09:06;;;;;;;60.67;26.42;;;;;;;2.52;70.11;97238.28;5088250;28;20488;-72
2021/11/26 05:11:33;;;;;;;53.75;24.17;;;;;;;2.55;70.49;97234.19;5089464;28;20137;-71
2021/11/26 05:13:59;;;;;;;48.30;22.67;;;;;;;2.54;69.94;97233.41;5088574;28;20035;-71
2021/11/26 05:16:25;;;;;;;52.33;23.80;;;;;;;2.53;69.90;97239.91;5090430;28;20418;-71
2021/11/26 05:18:50;;;;;;;52.47;24.05;;;;;;;2.50;70.05;97245.88;5088923;28;20039;-71
2021/11/26 05:21:16;;;;;;;57.78;24.20;;;;;;;2.52;70.44;97247.19;5071500;28;20082;-71
2021/11/26 05:23:42;;;;;;;56.38;25.63;;;;;;;2.52;70.43;97243.69;5071377;28;20036;-71
2021/11/26 05:26:08;;;;;;;56.70;23.85;;;;;;;2.50;69.66;97238.53;5089438;28;20423;-71
2021/11/26 05:28:33;;;;;;;64.13;26.65;;;;;;;2.52;69.86;97241.00;5071124;28;20020;-71
2021/11/26 05:30:59;;;;;;;50.60;23.65;;;;;;;2.55;70.58;97239.63;5088885;28;20460;-71
2021/11/26 05:33:25;;;;;;;52.33;23.98;;;;;;;2.57;70.26;97240.97;5088721;28;20031;-71
2021/11/26 05:35:51;;;;;;;59.50;26.25;;;;;;;2.58;69.90;97236.38;5088669;28;20032;-71
2021/11/26 05:38:16;;;;;;;57.63;24.38;;;;;;;2.61;69.82;97231.22;5089770;28;20024;-71
2021/11/26 05:40:42;;;;;;;57.15;25.63;;;;;;;2.58;70.00;97228.25;5089297;28;20032;-70
2021/11/26 05:43:07;;;;;;;55.75;26.20;;;;;;;2.55;70.12;97234.19;5089134;28;20028;-71
2021/11/26 05:45:33;;;;;;;67.72;33.33;;;;;;;2.54;70.36;97225.28;5090184;28;20020;-71
2021/11/26 05:47:58;;;;;;;67.93;31.83;;;;;;;2.52;70.33;97230.16;5088720;28;20028;-72
2021/11/26 05:50:25;;;;;;;66.15;28.95;;;;;;;2.50;69.70;97232.34;5088771;28;20138;-71
2021/11/26 05:52:51;;;;;;;55.42;24.52;;;;;;;2.50;69.75;97230.41;5087955;28;20560;-70
2021/11/26 05:55:20;;;;;;;56.63;25.73;;;;;;;2.50;69.88;97226.91;5087602;28;20026;-71
2021/11/26 05:57:46;;;;;;;56.17;25.77;;;;;;;2.49;69.69;97236.13;5090369;28;20032;-71
2021/11/26 06:00:14;;;;;;;76.75;32.00;;;;;;;2.50;69.66;97243.16;5070851;28;20042;-71
2021/11/26 06:02:40;;;;;;;66.85;27.67;;;;;;;2.51;69.66;97225.84;5086536;28;20042;-71
2021/11/26 06:05:06;;;;;;;59.75;25.10;;;;;;;2.58;69.75;97223.66;5089342;28;20578;-71
2021/11/26 06:07:32;;;;;;;57.28;25.17;;;;;;;2.59;70.62;97219.03;5090174;28;20028;-71
2021/11/26 06:09:58;;;;;;;61.30;26.40;;;;;;;2.56;70.22;97209.59;5089716;28;20492;-71
2021/11/26 06:12:24;;;;;;;60.00;25.80;;;;;;;2.57;70.39;97205.78;5090966;28;20035;-71
2021/11/26 06:14:49;;;;;;;63.83;26.45;;;;;;;2.60;69.72;97199.00;5091048;28;20023;-71
2021/11/26 06:17:15;;;;;;;60.75;26.88;;;;;;;2.60;70.11;97193.59;5090652;28;20425;-71
2021/11/26 06:19:41;;;;;;;61.95;26.58;;;;;;;2.59;69.60;97194.69;5089548;28;20016;-71
2021/11/26 06:22:06;;;;;;;59.55;26.48;;;;;;;2.59;70.30;97183.84;5090810;28;20051;-71
2021/11/26 06:24:31;;;;;;;64.25;30.60;;;;;;;2.58;69.70;97188.47;5089404;28;20024;-71
2021/11/26 06:26:57;;;;;;;69.57;33.13;;;;;;;2.57;70.18;97181.44;5072231;28;20050;-70
2021/11/26 06:29:22;;;;;;;84.25;40.17;;;;;;;2.59;70.64;97183.84;5087191;28;20059;-70
2021/11/26 06:31:48;;;;;;;82.43;37.92;;;;;;;2.57;70.18;97186.84;5070847;28;20496;-71
2021/11/26 06:34:13;;;;;;;82.80;36.97;;;;;;;2.58;69.91;97190.34;5087096;28;20460;-71
2021/11/26 06:36:39;;;;;;;88.93;39.55;;;;;;;2.58;70.37;97193.88;5088300;28;20678;-71
2021/11/26 06:39:04;;;;;;;81.78;33.45;;;;;;;2.58;70.20;97207.41;5072127;28;20043;-71
2021/11/26 06:41:30;;;;;;;62.42;29.92;;;;;;;2.59;70.03;97211.75;5086336;28;20434;-71
2021/11/26 06:43:56;;;;;;;61.05;28.48;;;;;;;2.60;70.54;97213.38;5089063;28;20032;-71
2021/11/26 06:46:21;;;;;;;62.20;28.17;;;;;;;2.61;70.47;97200.63;5089608;28;20063;-71
2021/11/26 06:48:47;;;;;;;68.38;31.17;;;;;;;2.62;70.37;97207.66;5089169;28;20060;-71
2021/11/26 06:51:12;;;;;;;72.68;32.78;;;;;;;2.66;69.96;97196.00;5087452;28;20032;-71
2021/11/26 06:53:38;;;;;;;73.65;33.92;;;;;;;2.66;69.83;97203.31;5087814;28;20106;-71
2021/11/26 06:56:04;;;;;;;68.85;30.63;;;;;;;2.66;70.62;97196.00;5087902;28;20028;-71
2021/11/26 06:58:29;;;;;;;68.32;32.95;;;;;;;2.67;70.05;97194.13;5088999;28;20119;-72
2021/11/26 07:00:55;;;;;;;75.60;34.10;;;;;;;2.69;70.27;97186.53;5087971;28;20063;-72
2021/11/26 07:03:21;;;;;;;64.35;28.65;;;;;;;2.75;70.04;97187.31;5085164;28;20111;-72
2021/11/26 07:05:46;;;;;;;71.57;29.13;;;;;;;2.75;70.30;97179.19;5092763;28;20065;-72
2021/11/26 07:08:12;;;;;;;67.05;29.60;;;;;;;2.73;69.82;97190.31;5092100;28;20024;-71
2021/11/26 07:10:37;;;;;;;71.15;30.52;;;;;;;2.71;70.25;97183.53;5092164;28;20028;-71
2021/11/26 07:13:03;;;;;;;74.03;32.17;;;;;;;2.70;70.63;97190.88;5094149;28;20063;-72
2021/11/26 07:15:28;;;;;;;77.15;33.58;;;;;;;2.71;69.78;97180.81;5093054;28;21534;-71
2021/11/26 07:17:54;;;;;;;67.28;31.63;;;;;;;2.70;70.50;97182.75;5091599;28;20437;-71
2021/11/26 07:20:20;;;;;;;74.25;32.83;;;;;;;2.67;70.52;97183.28;5093498;28;20020;-72
2021/11/26 07:22:45;;;;;;;68.97;31.58;;;;;;;2.67;70.30;97189.50;5093412;28;20552;-71
2021/11/26 07:25:11;;;;;;;78.30;34.33;;;;;;;2.67;70.44;97178.66;5092565;28;20032;-71
2021/11/26 07:27:37;;;;;;;65.22;30.52;;;;;;;2.68;70.72;97184.91;5095116;28;20028;-72
2021/11/26 07:30:08;;;;;;;63.85;30.92;;;;;;;2.71;69.92;97183.53;5092202;28;20264;-71
2021/11/26 07:32:34;;;;;;;72.72;32.83;;;;;;;2.75;70.57;97184.59;5089567;28;20524;-73
2021/11/26 07:35:00;;;;;;;121.07;44.63;;;;;;;2.77;70.44;97190.56;5093131;28;20102;-74
2021/11/26 07:37:25;;;;;;;177.93;60.95;;;;;;;2.77;70.33;97183.25;5092835;28;20028;-73
2021/11/26 07:39:51;;;;;;;136.18;47.88;;;;;;;2.81;70.60;97183.50;5090541;28;20036;-75
2021/11/26 07:42:17;;;;;;;91.78;37.47;;;;;;;2.85;70.34;97178.34;5085454;28;20043;-75
2021/11/26 07:44:43;;;;;;;88.30;36.15;;;;;;;2.86;70.60;97182.66;5093852;28;20032;-73
2021/11/26 07:47:11;;;;;;;166.60;57.03;;;;;;;2.84;70.14;97177.53;5092839;28;20012;-74
2021/11/26 07:49:37;;;;;;;137.40;48.03;;;;;;;2.84;70.26;97174.81;5092306;28;20026;-74
2021/11/26 07:52:03;;;;;;;156.02;52.97;;;;;;;2.85;70.35;97167.53;5074096;28;20016;-74
2021/11/26 07:54:29;;;;;;;174.48;60.88;;;;;;;2.85;70.37;97181.88;5074596;28;20027;-74
2021/11/26 07:56:54;;;;;;;170.80;65.47;;;;;;;2.82;70.05;97168.88;5091733;28;20152;-73
2021/11/26 07:59:20;;;;;;;121.07;51.63;;;;;;;2.82;70.31;97174.28;5091494;28;20024;-74
2021/11/26 08:01:46;;;;;;;138.10;65.57;;;;;;;2.79;70.29;97164.00;5091120;28;20036;-73
2021/11/26 08:04:14;;;;;;;113.78;52.97;;;;;;;2.77;69.84;97161.59;5092051;28;20434;-75
2021/11/26 08:06:42;;;;;;;107.82;58.20;;;;;;;2.73;69.92;97152.41;5092291;28;20445;-75
2021/11/26 08:09:08;;;;;;;112.05;56.53;;;;;;;2.72;70.75;97145.38;5090592;28;20031;-75
2021/11/26 08:11:33;;;;;;;105.10;53.10;;;;;;;2.72;70.28;97144.53;5075596;28;20020;-75
2021/11/26 08:13:58;;;;;;;100.05;45.40;;;;;;;2.73;70.61;97133.47;5092259;28;20024;-74
2021/11/26 08:16:24;;;;;;;77.53;39.60;;;;;;;2.75;70.94;97117.75;5093340;28;20032;-74
2021/11/26 08:18:49;;;;;;;75.35;37.17;;;;;;;2.75;71.03;97115.03;5073662;28;20147;-74
2021/11/26 08:21:15;;;;;;;76.82;34.70;;;;;;;2.76;71.09;97111.25;5089952;28;20585;-74
2021/11/26 08:23:40;;;;;;;83.90;40.42;;;;;;;2.76;71.46;97113.94;5073690;28;20032;-73
2021/11/26 08:26:06;;;;;;;91.65;43.00;;;;;;;2.80;71.33;97109.59;5092148;28;20265;-73
2021/11/26 08:28:31;;;;;;;78.60;38.53;;;;;;;2.84;70.83;97104.44;5091432;28;20040;-75
2021/11/26 08:30:57;;;;;;;77.95;35.50;;;;;;;2.84;70.73;97109.84;5093011;28;20048;-75
2021/11/26 08:33:24;;;;;;;78.30;35.40;;;;;;;2.85;71.13;97094.41;5091910;28;20039;-74
2021/11/26 08:35:50;;;;;;;125.00;55.72;;;;;;;2.82;71.55;97102.00;5092521;28;20032;-74
2021/11/26 08:38:18;;;;;;;109.40;48.67;;;;;;;2.78;71.45;97086.59;5090966;28;20043;-74
2021/11/26 08:40:44;;;;;;;144.10;59.20;;;;;;;2.74;71.20;97082.81;5090542;28;20035;-77
2021/11/26 08:43:10;;;;;;;124.38;53.70;;;;;;;2.73;71.43;97076.59;5087201;28;20036;-76
2021/11/26 08:45:37;;;;;;;129.20;51.92;;;;;;;2.78;71.38;97067.63;5091263;28;20107;-77
2021/11/26 08:48:02;;;;;;;154.18;58.20;;;;;;;2.78;71.65;97067.63;5090724;28;20111;-73
2021/11/26 08:50:28;;;;;;;174.27;62.58;;;;;;;2.76;72.04;97059.78;5089581;28;20103;-73
2021/11/26 08:52:53;;;;;;;159.07;62.45;;;;;;;2.75;72.44;97052.75;5090277;28;20028;-76
2021/11/26 08:55:19;;;;;;;148.90;56.97;;;;;;;2.74;72.27;97053.84;5091128;28;20031;-77
2021/11/26 08:57:58;;;;;;;133.52;55.15;;;;;;;2.70;72.16;97060.09;5089965;28;20051;-76
2021/11/26 09:00:32;;;;;;;132.80;49.78;;;;;;;2.67;72.26;97048.72;5086655;28;20032;-72
2021/11/26 09:03:00;;;;;;;141.40;51.30;;;;;;;2.62;72.43;97050.66;5092366;28;20109;-73
2021/11/26 09:05:26;;;;;;;132.80;51.83;;;;;;;2.60;72.99;97047.44;5089435;28;20028;-73
2021/11/26 09:07:57;;;;;;;110.00;44.20;;;;;;;2.58;72.73;97047.72;5085283;28;20028;-76
2021/11/26 09:10:23;;;;;;;101.72;43.50;;;;;;;2.57;72.58;97046.09;5088136;28;20111;-75
2021/11/26 09:12:48;;;;;;;99.80;41.20;;;;;;;2.53;72.74;97048.53;5089238;28;20451;-75
2021/11/26 09:15:14;;;;;;;100.13;44.72;;;;;;;2.47;72.66;97041.53;5093121;28;20023;-76
2021/11/26 09:17:40;;;;;;;107.90;43.30;;;;;;;2.42;72.78;97040.75;5091368;28;20024;-77
2021/11/26 09:20:06;;;;;;;96.25;40.65;;;;;;;2.35;72.42;97036.44;5088741;28;20081;-77
2021/11/26 09:22:31;;;;;;;125.35;52.05;;;;;;;2.27;72.78;97033.53;5090074;28;20115;-77
2021/11/26 09:24:57;;;;;;;137.90;58.10;;;;;;;2.26;73.17;97034.59;5085475;28;20028;-78
2021/11/26 09:27:23;;;;;;;142.70;57.60;;;;;;;2.25;73.19;97033.00;5088434;28;20456;-78
2021/11/26 09:29:49;;;;;;;151.43;55.88;;;;;;;2.24;72.72;97037.59;5089966;28;20114;-78
2021/11/26 09:32:14;;;;;;;145.90;52.70;;;;;;;2.26;72.95;97027.28;5088249;28;20040;-80
2021/11/26 09:34:40;;;;;;;161.02;58.97;;;;;;;2.19;72.57;97022.19;5092138;28;20016;-78
2021/11/26 09:37:05;;;;;;;121.72;47.00;;;;;;;2.17;72.95;97018.94;5090537;28;20672;-80
2021/11/26 09:39:31;;;;;;;140.90;54.60;;;;;;;2.15;73.22;97021.13;5089437;28;20538;-77
2021/11/26 09:41:57;;;;;;;291.33;92.07;;;;;;;2.13;72.95;97011.66;5083856;28;20020;-77
2021/11/26 09:44:23;;;;;;;721.33;287.40;;;;;;;2.11;72.67;97011.13;5071930;28;20416;-74
2021/11/26 09:46:51;;;;;;;570.05;217.48;;;;;;;2.09;72.44;97011.41;5089084;28;20415;-73
2021/11/26 09:49:16;;;;;;;814.95;309.75;;;;;;;2.03;72.93;96999.00;5088619;28;20039;-71
2021/11/26 09:51:42;;;;;;;448.17;138.07;;;;;;;2.01;73.57;96995.78;5089352;28;20024;-74
2021/11/26 09:54:08;;;;;;;208.13;69.75;;;;;;;2.00;73.30;96989.53;5088974;28;20028;-70
2021/11/26 09:56:34;;;;;;;536.08;199.10;;;;;;;1.96;73.33;96983.06;5088494;28;20034;-69
2021/11/26 09:59:00;;;;;;;458.92;147.25;;;;;;;1.92;73.33;96988.22;5090306;28;20032;-71
2021/11/26 10:01:26;;;;;;;454.98;141.93;;;;;;;1.91;73.18;96974.97;5089796;28;20039;-70
2021/11/26 10:03:53;;;;;;;777.20;263.42;;;;;;;1.89;73.17;96977.13;5090102;28;20063;-70
2021/11/26 10:06:38;;;;;;;334.02;104.65;;;;;;;1.88;72.78;96970.09;5084261;28;20511;-71
2021/11/26 10:09:11;;;;;;;186.77;65.75;;;;;;;1.86;72.87;96974.97;5089793;28;20028;-70
2021/11/26 10:11:46;;;;;;;211.52;69.03;;;;;;;1.84;73.39;96966.34;5090136;28;20162;-70
2021/11/26 10:14:18;;;;;;;221.68;71.43;;;;;;;1.84;73.65;96969.03;5072272;28;20024;-71
2021/11/26 10:16:50;;;;;;;166.98;57.75;;;;;;;1.82;73.72;96963.91;5072363;28;20024;-70
2021/11/26 10:19:16;;;;;;;174.13;60.38;;;;;;;1.88;73.88;96956.59;5090000;28;20781;-70
2021/11/26 10:21:43;;;;;;;142.18;52.72;;;;;;;1.95;73.43;96965.22;5090441;28;20369;-70
2021/11/26 10:24:14;;;;;;;114.85;48.17;;;;;;;2.03;73.91;96950.34;5072822;28;20043;-70
2021/11/26 10:26:47;;;;;;;144.77;57.60;;;;;;;2.07;74.29;96946.78;5089918;28;20032;-70
2021/11/26 10:29:13;;;;;;;133.48;55.67;;;;;;;2.11;73.48;96935.41;5089557;28;20166;-70
2021/11/26 10:31:39;;;;;;;172.77;71.50;;;;;;;2.03;73.65;96928.69;5089430;28;20488;-70
2021/11/26 10:34:07;;;;;;;268.33;96.40;;;;;;;2.01;74.04;96926.25;5089720;28;20028;-70
2021/11/26 10:36:51;;;;;;;457.95;152.50;;;;;;;2.03;73.63;96913.28;5071973;28;20648;-71
2021/11/26 10:39:20;;;;;;;243.38;105.03;;;;;;;2.08;73.94;96912.41;5091869;28;20525;-70
2021/11/26 10:41:51;;;;;;;183.05;75.47;;;;;;;2.12;74.14;96904.56;5088114;28;20020;-69
2021/11/26 10:44:19;;;;;;;325.08;127.10;;;;;;;2.07;73.68;96895.41;5093395;28;20031;-70
2021/11/26 10:47:01;;;;;;;222.63;99.03;;;;;;;2.04;73.30;96885.13;5093802;28;20024;-70
2021/11/26 10:49:39;;;;;;;180.20;82.00;;;;;;;2.00;74.08;96877.88;5093917;28;20463;-69
2021/11/26 11:00:17;;;;;;;139.10;67.55;;;;;;;2.08;74.34;96869.16;5093693;28;20032;-69
2021/11/26 11:02:46;;;;;;;116.60;51.08;;;;;;;2.15;74.74;96863.44;5093734;28;20042;-71
2021/11/26 11:05:41;;;;;;;112.75;48.20;;;;;;;2.13;73.92;96852.09;5093731;28;20534;-69
2021/11/26 11:08:23;;;;;;;142.57;55.80;;;;;;;2.16;74.01;96846.91;5076308;28;20043;-71
2021/11/26 11:10:49;;;;;;;113.85;46.95;;;;;;;2.25;74.61;96851.75;5092986;28;20369;-70
2021/11/26 11:13:18;;;;;;;120.28;49.08;;;;;;;2.28;74.74;96838.44;5093379;28;20078;-70
2021/11/26 11:15:45;;;;;;;117.90;47.60;;;;;;;2.31;74.67;96827.06;5075031;28;20369;-70
2021/11/26 11:18:12;;;;;;;122.68;52.85;;;;;;;2.31;74.59;96829.78;5075258;28;20028;-70
2021/11/26 11:20:39;;;;;;;138.27;55.15;;;;;;;2.27;74.54;96817.88;5074788;28;20048;-70
2021/11/26 11:23:06;;;;;;;117.70;48.55;;;;;;;2.29;74.18;96810.31;5072897;28;20454;-71
2021/11/26 11:25:32;;;;;;;145.00;58.55;;;;;;;2.35;74.71;96805.69;5072943;28;20086;-70
2021/11/26 11:28:04;;;;;;;130.88;55.05;;;;;;;2.32;73.91;96798.13;5091238;28;20103;-71